sensor_id;sensor_type;location;lat;lon;timestamp;pressure;altitude;pressure_sealevel;temperature;humidity
25664;BME280;13522;50.018;20.014;2023-11-22T03:04:52;99244.69;;;0.38;100.00
25664;BME280;13522;50.018;20.014;2023-11-22T03:08:04;99158.37;;;-0.16;100.00
25664;BME280;13522;50.018;20.014;2023-11-22T06:05:16;99518.55;;;-0.16;100.00
25664;BME280;13522;50.018;20.014;2023-11-22T06:08:27;99555.14;;;0.06;100.00
25664;BME280;13522;50.018;20.014;2023-11-22T06:11:45;99474.55;;;-0.48;100.00
25664;BME280;13522;50.018;20.014;2023-11-22T07:49:38;99684.54;;;-0.11;100.00
25664;BME280;13522;50.018;20.014;2023-11-22T07:52:50;99683.45;;;-0.05;100.00
25664;BME280;13522;50.018;20.014;2023-11-22T07:56:04;99681.99;;;-0.12;100.00
25664;BME280;13522;50.018;20.014;2023-11-22T07:59:19;99695.78;;;-0.09;100.00
25664;BME280;13522;50.018;20.014;2023-11-22T08:02:32;99696.52;;;-0.05;100.00
25664;BME280;13522;50.018;20.014;2023-11-22T08:05:45;99676.86;;;-0.15;100.00
25664;BME280;13522;50.018;20.014;2023-11-22T08:08:59;99695.94;;;-0.13;100.00
25664;BME280;13522;50.018;20.014;2023-11-22T08:15:16;99717.47;;;-0.07;100.00
25664;BME280;13522;50.018;20.014;2023-11-22T08:18:29;99720.97;;;-0.08;100.00
25664;BME280;13522;50.018;20.014;2023-11-22T08:21:40;99735.59;;;-0.02;100.00
25664;BME280;13522;50.018;20.014;2023-11-22T08:24:52;99727.63;;;0.01;100.00
25664;BME280;13522;50.018;20.014;2023-11-22T08:28:09;99753.68;;;0.03;100.00
25664;BME280;13522;50.018;20.014;2023-11-22T08:31:17;99755.92;;;0.13;100.00
25664;BME280;13522;50.018;20.014;2023-11-22T08:34:29;99741.42;;;0.05;100.00
25664;BME280;13522;50.018;20.014;2023-11-22T08:37:40;99739.09;;;-0.03;100.00
25664;BME280;13522;50.018;20.014;2023-11-22T08:40:53;99733.38;;;0.11;100.00
25664;BME280;13522;50.018;20.014;2023-11-22T08:44:06;99723.72;;;0.13;100.00
25664;BME280;13522;50.018;20.014;2023-11-22T08:47:19;99737.06;;;0.05;100.00
25664;BME280;13522;50.018;20.014;2023-11-22T08:50:32;99741.61;;;0.00;100.00
25664;BME280;13522;50.018;20.014;2023-11-22T08:53:46;99749.16;;;0.08;100.00
25664;BME280;13522;50.018;20.014;2023-11-22T08:56:58;99764.98;;;0.03;100.00
25664;BME280;13522;50.018;20.014;2023-11-22T09:00:11;99764.39;;;-0.05;100.00
25664;BME280;13522;50.018;20.014;2023-11-22T09:03:22;99770.33;;;0.00;100.00
25664;BME280;13522;50.018;20.014;2023-11-22T09:06:33;99767.74;;;-0.02;100.00
25664;BME280;13522;50.018;20.014;2023-11-22T09:09:43;99752.73;;;0.05;100.00
25664;BME280;13522;50.018;20.014;2023-11-22T09:12:57;99760.23;;;0.14;100.00
25664;BME280;13522;50.018;20.014;2023-11-22T09:16:11;99764.34;;;0.21;100.00
25664;BME280;13522;50.018;20.014;2023-11-22T09:19:17;99740.34;;;0.10;100.00
25664;BME280;13522;50.018;20.014;2023-11-22T09:22:29;99751.65;;;0.11;100.00
25664;BME280;13522;50.018;20.014;2023-11-22T09:25:41;99764.44;;;0.18;100.00
25664;BME280;13522;50.018;20.014;2023-11-22T09:28:52;99762.63;;;0.20;100.00
25664;BME280;13522;50.018;20.014;2023-11-22T09:32:00;99765.36;;;0.17;100.00
25664;BME280;13522;50.018;20.014;2023-11-22T09:35:11;99761.88;;;0.17;100.00
25664;BME280;13522;50.018;20.014;2023-11-22T09:38:22;99785.23;;;0.21;100.00
25664;BME280;13522;50.018;20.014;2023-11-22T09:41:33;99777.28;;;0.24;100.00
25664;BME280;13522;50.018;20.014;2023-11-22T09:44:45;99775.22;;;0.09;100.00
25664;BME280;13522;50.018;20.014;2023-11-22T09:47:59;99783.84;;;0.11;100.00
25664;BME280;13522;50.018;20.014;2023-11-22T09:51:15;99780.11;;;0.18;100.00
25664;BME280;13522;50.018;20.014;2023-11-22T09:54:32;99792.27;;;0.19;100.00
25664;BME280;13522;50.018;20.014;2023-11-22T09:57:46;99796.78;;;0.14;100.00
25664;BME280;13522;50.018;20.014;2023-11-22T10:01:00;99799.25;;;0.19;100.00
25664;BME280;13522;50.018;20.014;2023-11-22T10:04:14;99798.30;;;0.21;100.00
25664;BME280;13522;50.018;20.014;2023-11-22T10:07:26;99789.72;;;0.18;100.00
25664;BME280;13522;50.018;20.014;2023-11-22T10:10:39;99786.90;;;0.24;100.00
25664;BME280;13522;50.018;20.014;2023-11-22T10:13:53;99792.73;;;0.30;100.00
25664;BME280;13522;50.018;20.014;2023-11-22T10:17:06;99792.06;;;0.25;100.00
25664;BME280;13522;50.018;20.014;2023-11-22T10:20:20;99761.82;;;0.18;100.00
25664;BME280;13522;50.018;20.014;2023-11-22T10:23:32;99778.08;;;0.26;100.00
25664;BME280;13522;50.018;20.014;2023-11-22T10:26:45;99811.73;;;0.35;100.00
25664;BME280;13522;50.018;20.014;2023-11-22T10:29:57;99829.16;;;0.35;100.00
25664;BME280;13522;50.018;20.014;2023-11-22T10:33:10;99826.67;;;0.32;100.00
25664;BME280;13522;50.018;20.014;2023-11-22T10:36:24;99826.91;;;0.24;100.00
25664;BME280;13522;50.018;20.014;2023-11-22T10:39:36;99835.55;;;0.26;100.00
25664;BME280;13522;50.018;20.014;2023-11-22T10:42:49;99843.50;;;0.23;100.00
25664;BME280;13522;50.018;20.014;2023-11-22T10:46:03;99840.36;;;0.14;100.00
25664;BME280;13522;50.018;20.014;2023-11-22T10:49:16;99844.39;;;0.22;100.00
25664;BME280;13522;50.018;20.014;2023-11-22T10:52:28;99841.56;;;0.28;100.00
25664;BME280;13522;50.018;20.014;2023-11-22T10:55:45;99835.88;;;0.17;100.00
25664;BME280;13522;50.018;20.014;2023-11-22T10:58:59;99829.58;;;0.23;100.00
25664;BME280;13522;50.018;20.014;2023-11-22T11:02:17;99829.14;;;0.10;100.00
25664;BME280;13522;50.018;20.014;2023-11-22T11:05:32;99819.55;;;0.11;100.00
25664;BME280;13522;50.018;20.014;2023-11-22T11:08:47;99821.00;;;0.19;100.00
25664;BME280;13522;50.018;20.014;2023-11-22T11:12:00;99831.55;;;0.16;100.00
25664;BME280;13522;50.018;20.014;2023-11-22T11:15:15;99828.31;;;0.10;100.00
25664;BME280;13522;50.018;20.014;2023-11-22T11:18:29;99821.27;;;0.12;100.00
25664;BME280;13522;50.018;20.014;2023-11-22T11:21:42;99808.83;;;0.18;100.00
25664;BME280;13522;50.018;20.014;2023-11-22T11:25:01;99810.62;;;0.18;100.00
25664;BME280;13522;50.018;20.014;2023-11-22T11:28:16;99819.34;;;0.17;100.00
25664;BME280;13522;50.018;20.014;2023-11-22T11:31:35;99827.62;;;0.29;100.00
25664;BME280;13522;50.018;20.014;2023-11-22T11:34:51;99830.66;;;0.17;100.00
25664;BME280;13522;50.018;20.014;2023-11-22T11:38:02;99817.47;;;0.20;100.00
25664;BME280;13522;50.018;20.014;2023-11-22T11:41:15;99833.35;;;0.14;100.00
25664;BME280;13522;50.018;20.014;2023-11-22T11:44:28;99832.55;;;0.12;100.00
25664;BME280;13522;50.018;20.014;2023-11-22T11:47:40;99843.20;;;0.06;100.00
25664;BME280;13522;50.018;20.014;2023-11-22T11:50:52;99842.52;;;0.01;100.00
25664;BME280;13522;50.018;20.014;2023-11-22T11:54:03;99851.84;;;0.08;100.00
25664;BME280;13522;50.018;20.014;2023-11-22T11:57:15;99859.47;;;0.14;100.00
25664;BME280;13522;50.018;20.014;2023-11-22T12:00:28;99860.98;;;0.21;100.00
25664;BME280;13522;50.018;20.014;2023-11-22T12:03:40;99868.22;;;0.13;100.00
25664;BME280;13522;50.018;20.014;2023-11-22T12:06:52;99882.03;;;0.17;100.00
25664;BME280;13522;50.018;20.014;2023-11-22T12:10:05;99876.80;;;0.17;100.00
25664;BME280;13522;50.018;20.014;2023-11-22T12:13:21;99878.61;;;0.15;100.00
25664;BME280;13522;50.018;20.014;2023-11-22T12:16:32;99881.16;;;0.16;100.00
25664;BME280;13522;50.018;20.014;2023-11-22T12:19:44;99867.22;;;0.17;100.00
25664;BME280;13522;50.018;20.014;2023-11-22T12:22:55;99865.61;;;0.13;100.00
25664;BME280;13522;50.018;20.014;2023-11-22T12:26:11;99875.34;;;0.08;100.00
25664;BME280;13522;50.018;20.014;2023-11-22T12:29:24;99882.17;;;0.12;100.00
25664;BME280;13522;50.018;20.014;2023-11-22T12:32:35;99858.73;;;0.11;100.00
25664;BME280;13522;50.018;20.014;2023-11-22T12:35:50;99861.13;;;0.17;100.00
25664;BME280;13522;50.018;20.014;2023-11-22T12:38:59;99863.89;;;0.12;100.00
25664;BME280;13522;50.018;20.014;2023-11-22T12:42:11;99851.81;;;0.10;100.00
25664;BME280;13522;50.018;20.014;2023-11-22T12:45:24;99848.94;;;0.17;100.00
25664;BME280;13522;50.018;20.014;2023-11-22T12:48:37;99849.14;;;0.11;100.00
25664;BME280;13522;50.018;20.014;2023-11-22T12:51:49;99839.38;;;0.16;100.00
25664;BME280;13522;50.018;20.014;2023-11-22T12:55:04;99847.00;;;0.22;100.00
25664;BME280;13522;50.018;20.014;2023-11-22T12:58:15;99841.90;;;0.19;100.00
25664;BME280;13522;50.018;20.014;2023-11-22T13:01:29;99848.61;;;0.26;100.00
25664;BME280;13522;50.018;20.014;2023-11-22T13:04:41;99856.71;;;0.19;100.00
25664;BME280;13522;50.018;20.014;2023-11-22T13:07:54;99859.38;;;0.17;100.00
25664;BME280;13522;50.018;20.014;2023-11-22T13:11:08;99846.14;;;-0.03;100.00
25664;BME280;13522;50.018;20.014;2023-11-22T13:14:20;99881.37;;;0.10;100.00
25664;BME280;13522;50.018;20.014;2023-11-22T13:17:34;99878.93;;;0.06;100.00
25664;BME280;13522;50.018;20.014;2023-11-22T13:20:43;99879.77;;;0.06;100.00
25664;BME280;13522;50.018;20.014;2023-11-22T13:23:56;99885.91;;;0.05;100.00
25664;BME280;13522;50.018;20.014;2023-11-22T13:27:10;99887.83;;;0.00;100.00
25664;BME280;13522;50.018;20.014;2023-11-22T13:30:22;99905.13;;;0.03;100.00
25664;BME280;13522;50.018;20.014;2023-11-22T13:33:33;99892.94;;;0.03;100.00
25664;BME280;13522;50.018;20.014;2023-11-22T13:36:45;99901.45;;;0.08;100.00
25664;BME280;13522;50.018;20.014;2023-11-22T13:39:57;99890.13;;;0.09;100.00
25664;BME280;13522;50.018;20.014;2023-11-22T13:43:09;99879.36;;;0.18;100.00
25664;BME280;13522;50.018;20.014;2023-11-22T13:46:20;99889.80;;;0.18;100.00
25664;BME280;13522;50.018;20.014;2023-11-22T13:49:32;99882.77;;;0.20;100.00
25664;BME280;13522;50.018;20.014;2023-11-22T13:52:45;99893.42;;;0.14;100.00
25664;BME280;13522;50.018;20.014;2023-11-22T13:55:56;99903.78;;;0.17;100.00
25664;BME280;13522;50.018;20.014;2023-11-22T13:59:08;99894.34;;;0.13;100.00
25664;BME280;13522;50.018;20.014;2023-11-22T14:02:16;99901.17;;;0.17;100.00
25664;BME280;13522;50.018;20.014;2023-11-22T14:05:27;99894.14;;;0.19;100.00
25664;BME280;13522;50.018;20.014;2023-11-22T14:08:39;99892.39;;;0.20;100.00
25664;BME280;13522;50.018;20.014;2023-11-22T14:11:52;99891.88;;;0.09;100.00
25664;BME280;13522;50.018;20.014;2023-11-22T14:15:00;99909.41;;;0.05;100.00
25664;BME280;13522;50.018;20.014;2023-11-22T14:18:14;99924.13;;;0.08;100.00
25664;BME280;13522;50.018;20.014;2023-11-22T14:21:27;99935.72;;;-0.01;100.00
25664;BME280;13522;50.018;20.014;2023-11-22T14:24:38;99933.85;;;0.03;100.00
25664;BME280;13522;50.018;20.014;2023-11-22T14:27:52;99943.96;;;0.13;100.00
25664;BME280;13522;50.018;20.014;2023-11-22T14:31:06;99965.86;;;0.09;100.00
25664;BME280;13522;50.018;20.014;2023-11-22T14:34:20;99965.91;;;0.08;100.00
25664;BME280;13522;50.018;20.014;2023-11-22T14:37:33;99963.13;;;0.12;100.00
25664;BME280;13522;50.018;20.014;2023-11-22T14:40:45;99946.91;;;0.03;100.00
25664;BME280;13522;50.018;20.014;2023-11-22T14:43:58;99950.99;;;0.11;100.00
25664;BME280;13522;50.018;20.014;2023-11-22T14:50:08;99926.88;;;0.03;100.00
25664;BME280;13522;50.018;20.014;2023-11-22T14:53:22;99933.40;;;0.16;100.00
25664;BME280;13522;50.018;20.014;2023-11-22T14:56:32;99949.38;;;0.07;100.00
25664;BME280;13522;50.018;20.014;2023-11-22T15:05:44;99954.74;;;0.03;100.00
25664;BME280;13522;50.018;20.014;2023-11-22T15:08:55;99959.08;;;0.04;100.00
25664;BME280;13522;50.018;20.014;2023-11-22T15:12:06;99961.69;;;0.04;100.00
25664;BME280;13522;50.018;20.014;2023-11-22T15:15:13;99953.11;;;0.00;100.00
25664;BME280;13522;50.018;20.014;2023-11-22T15:18:25;99956.49;;;0.02;100.00
25664;BME280;13522;50.018;20.014;2023-11-22T15:21:37;99962.77;;;-0.04;100.00
25664;BME280;13522;50.018;20.014;2023-11-22T15:28:04;99959.11;;;0.02;100.00
25664;BME280;13522;50.018;20.014;2023-11-22T15:31:17;99958.02;;;0.09;100.00
25664;BME280;13522;50.018;20.014;2023-11-22T15:34:30;99948.44;;;0.10;100.00
25664;BME280;13522;50.018;20.014;2023-11-22T15:37:43;99943.84;;;0.16;100.00
25664;BME280;13522;50.018;20.014;2023-11-22T15:40:55;99938.80;;;0.12;100.00
25664;BME280;13522;50.018;20.014;2023-11-22T15:44:10;99934.72;;;0.03;100.00
25664;BME280;13522;50.018;20.014;2023-11-22T15:47:23;99944.05;;;0.10;100.00
25664;BME280;13522;50.018;20.014;2023-11-22T15:50:35;99954.41;;;0.13;100.00
25664;BME280;13522;50.018;20.014;2023-11-22T15:53:47;99943.44;;;0.02;100.00
25664;BME280;13522;50.018;20.014;2023-11-22T15:57:00;99944.30;;;0.03;100.00
25664;BME280;13522;50.018;20.014;2023-11-22T16:00:14;99948.72;;;0.00;100.00
25664;BME280;13522;50.018;20.014;2023-11-22T16:03:27;99963.55;;;0.00;100.00
25664;BME280;13522;50.018;20.014;2023-11-22T16:06:40;99953.66;;;0.10;100.00
25664;BME280;13522;50.018;20.014;2023-11-22T16:09:54;99964.25;;;0.05;100.00
25664;BME280;13522;50.018;20.014;2023-11-22T16:13:06;99952.80;;;0.09;100.00
25664;BME280;13522;50.018;20.014;2023-11-22T16:16:18;99963.25;;;0.09;100.00
25664;BME280;13522;50.018;20.014;2023-11-22T16:19:31;99956.30;;;0.08;100.00
25664;BME280;13522;50.018;20.014;2023-11-22T16:22:43;99958.11;;;0.06;100.00
25664;BME280;13522;50.018;20.014;2023-11-22T16:25:56;99956.30;;;0.08;100.00
25664;BME280;13522;50.018;20.014;2023-11-22T16:29:08;99960.64;;;0.09;100.00
25664;BME280;13522;50.018;20.014;2023-11-22T16:32:22;99946.05;;;0.02;100.00
25664;BME280;13522;50.018;20.014;2023-11-22T16:35:34;99943.44;;;0.02;100.00
25664;BME280;13522;50.018;20.014;2023-11-22T16:38:46;99943.69;;;-0.06;100.00
25664;BME280;13522;50.018;20.014;2023-11-22T16:42:01;99940.94;;;-0.01;100.00
25664;BME280;13522;50.018;20.014;2023-11-22T16:45:13;99935.72;;;-0.01;100.00
25664;BME280;13522;50.018;20.014;2023-11-22T16:48:25;99955.74;;;-0.02;100.00
25664;BME280;13522;50.018;20.014;2023-11-22T16:51:38;99971.66;;;-0.09;100.00
25664;BME280;13522;50.018;20.014;2023-11-22T16:54:50;99964.33;;;0.02;100.00
25664;BME280;13522;50.018;20.014;2023-11-22T16:58:03;99956.49;;;0.02;100.00
25664;BME280;13522;50.018;20.014;2023-11-22T17:01:15;99946.27;;;-0.04;100.00
25664;BME280;13522;50.018;20.014;2023-11-22T17:04:27;99950.08;;;-0.14;100.00
25664;BME280;13522;50.018;20.014;2023-11-22T17:07:39;99946.47;;;-0.10;100.00
25664;BME280;13522;50.018;20.014;2023-11-22T17:10:52;99965.73;;;-0.14;100.00
25664;BME280;13522;50.018;20.014;2023-11-22T17:14:05;99960.59;;;-0.17;100.00
25664;BME280;13522;50.018;20.014;2023-11-22T17:17:18;99962.51;;;-0.22;100.00
25664;BME280;13522;50.018;20.014;2023-11-22T17:20:32;99957.28;;;-0.22;100.00
25664;BME280;13522;50.018;20.014;2023-11-22T17:23:44;99960.89;;;-0.26;100.00
25664;BME280;13522;50.018;20.014;2023-11-22T17:26:57;99972.95;;;-0.22;100.00
25664;BME280;13522;50.018;20.014;2023-11-22T17:30:10;99970.41;;;-0.25;100.00
25664;BME280;13522;50.018;20.014;2023-11-22T17:33:23;99959.27;;;-0.30;100.00
25664;BME280;13522;50.018;20.014;2023-11-22T17:36:37;99959.16;;;-0.27;100.00
25664;BME280;13522;50.018;20.014;2023-11-22T17:39:49;99965.32;;;-0.30;100.00
25664;BME280;13522;50.018;20.014;2023-11-22T17:43:01;99981.61;;;-0.22;100.00
25664;BME280;13522;50.018;20.014;2023-11-22T17:46:14;99985.70;;;-0.13;100.00
25664;BME280;13522;50.018;20.014;2023-11-22T17:49:26;99986.44;;;-0.08;100.00
25664;BME280;13522;50.018;20.014;2023-11-22T17:52:38;99974.27;;;-0.09;100.00
25664;BME280;13522;50.018;20.014;2023-11-22T17:55:50;99967.43;;;-0.13;100.00
25664;BME280;13522;50.018;20.014;2023-11-22T17:59:03;99977.06;;;-0.15;100.00
25664;BME280;13522;50.018;20.014;2023-11-22T18:02:15;99971.77;;;-0.12;100.00
25664;BME280;13522;50.018;20.014;2023-11-22T18:05:28;99970.77;;;-0.08;100.00
25664;BME280;13522;50.018;20.014;2023-11-22T18:08:40;99974.38;;;-0.12;100.00
25664;BME280;13522;50.018;20.014;2023-11-22T18:11:52;99981.02;;;-0.02;100.00
25664;BME280;13522;50.018;20.014;2023-11-22T18:15:05;99972.46;;;-0.07;100.00
25664;BME280;13522;50.018;20.014;2023-11-22T18:18:19;99982.02;;;-0.06;100.00
25664;BME280;13522;50.018;20.014;2023-11-22T18:21:31;99963.75;;;-0.06;100.00
25664;BME280;13522;50.018;20.014;2023-11-22T18:24:44;99964.02;;;-0.15;100.00
25664;BME280;13522;50.018;20.014;2023-11-22T18:27:56;99973.59;;;-0.16;100.00
25664;BME280;13522;50.018;20.014;2023-11-22T18:31:10;99975.27;;;-0.13;100.00
25664;BME280;13522;50.018;20.014;2023-11-22T18:34:22;99974.21;;;-0.08;100.00
25664;BME280;13522;50.018;20.014;2023-11-22T18:37:37;99979.67;;;-0.15;100.00
25664;BME280;13522;50.018;20.014;2023-11-22T18:40:50;99986.00;;;-0.22;100.00
25664;BME280;13522;50.018;20.014;2023-11-22T18:44:04;99984.27;;;-0.23;100.00
25664;BME280;13522;50.018;20.014;2023-11-22T18:50:33;99978.81;;;-0.16;100.00
25664;BME280;13522;50.018;20.014;2023-11-22T18:53:45;99988.42;;;-0.16;100.00
25664;BME280;13522;50.018;20.014;2023-11-22T18:56:59;100000.56;;;-0.15;100.00
25664;BME280;13522;50.018;20.014;2023-11-22T19:00:14;99996.14;;;-0.13;100.00
25664;BME280;13522;50.018;20.014;2023-11-22T19:03:27;99986.88;;;-0.23;100.00
25664;BME280;13522;50.018;20.014;2023-11-22T19:06:40;99971.59;;;-0.35;100.00
25664;BME280;13522;50.018;20.014;2023-11-22T19:09:53;99959.30;;;-0.32;100.00
25664;BME280;13522;50.018;20.014;2023-11-22T19:13:06;99940.01;;;-0.26;100.00
25664;BME280;13522;50.018;20.014;2023-11-22T19:16:19;99934.98;;;-0.32;100.00
25664;BME280;13522;50.018;20.014;2023-11-22T19:20:36;99922.11;;;-0.38;100.00
25664;BME280;13522;50.018;20.014;2023-11-22T19:23:50;99919.64;;;-0.43;100.00
25664;BME280;13522;50.018;20.014;2023-11-22T19:27:06;99925.53;;;-0.36;100.00
25664;BME280;13522;50.018;20.014;2023-11-22T19:30:19;99933.17;;;-0.30;100.00
25664;BME280;13522;50.018;20.014;2023-11-22T19:33:31;99928.03;;;-0.33;100.00
25664;BME280;13522;50.018;20.014;2023-11-22T19:36:43;99940.01;;;-0.26;100.00
25664;BME280;13522;50.018;20.014;2023-11-22T19:39:58;99942.00;;;-0.34;100.00
25664;BME280;13522;50.018;20.014;2023-11-22T19:43:10;99935.16;;;-0.38;100.00
25664;BME280;13522;50.018;20.014;2023-11-22T19:46:22;99943.98;;;-0.42;100.00
25664;BME280;13522;50.018;20.014;2023-11-22T19:49:34;99935.97;;;-0.36;100.00
25664;BME280;13522;50.018;20.014;2023-11-22T19:52:47;99931.74;;;-0.40;100.00
25664;BME280;13522;50.018;20.014;2023-11-22T19:56:00;99934.11;;;-0.33;100.00
25664;BME280;13522;50.018;20.014;2023-11-22T19:59:14;99946.17;;;-0.29;100.00
25664;BME280;13522;50.018;20.014;2023-11-22T20:02:28;99943.50;;;-0.27;100.00
25664;BME280;13522;50.018;20.014;2023-11-22T20:06:12;99914.47;;;-0.44;100.00
25664;BME280;13522;50.018;20.014;2023-11-22T20:09:25;99921.36;;;-0.42;100.00
25664;BME280;13522;50.018;20.014;2023-11-22T20:12:50;99933.36;;;-0.36;100.00
25664;BME280;13522;50.018;20.014;2023-11-22T20:16:03;99929.75;;;-0.32;100.00
25664;BME280;13522;50.018;20.014;2023-11-22T20:19:44;99920.81;;;-0.25;100.00
25664;BME280;13522;50.018;20.014;2023-11-22T20:22:56;99916.70;;;-0.32;100.00
25664;BME280;13522;50.018;20.014;2023-11-22T20:26:36;99923.73;;;-0.34;100.00
25664;BME280;13522;50.018;20.014;2023-11-22T20:29:49;99936.67;;;-0.31;100.00
25664;BME280;13522;50.018;20.014;2023-11-22T20:33:13;99937.40;;;-0.26;100.00
25664;BME280;13522;50.018;20.014;2023-11-22T20:59:12;99878.59;;;-0.10;100.00
25664;BME280;13522;50.018;20.014;2023-11-22T21:02:25;99880.48;;;-0.15;100.00
25664;BME280;13522;50.018;20.014;2023-11-22T21:06:06;99875.37;;;-0.18;100.00
25664;BME280;13522;50.018;20.014;2023-11-22T21:42:08;99805.78;;;-0.19;100.00
25664;BME280;13522;50.018;20.014;2023-11-22T21:45:21;99819.57;;;-0.16;100.00
25664;BME280;13522;50.018;20.014;2023-11-22T21:49:48;99819.75;;;-0.20;100.00
25664;BME280;13522;50.018;20.014;2023-11-22T21:54:19;99798.75;;;-0.17;100.00
25664;BME280;13522;50.018;20.014;2023-11-22T21:57:32;99792.52;;;-0.13;100.00
25664;BME280;13522;50.018;20.014;2023-11-22T22:00:57;99789.45;;;-0.26;100.00
25664;BME280;13522;50.018;20.014;2023-11-22T22:07:17;99767.63;;;-0.23;100.00
25664;BME280;13522;50.018;20.014;2023-11-22T22:10:29;99786.64;;;-0.20;100.00
25664;BME280;13522;50.018;20.014;2023-11-22T22:13:42;99798.87;;;-0.20;100.00
25664;BME280;13522;50.018;20.014;2023-11-22T22:19:56;99779.79;;;-0.22;100.00
25664;BME280;13522;50.018;20.014;2023-11-22T22:23:09;99776.47;;;-0.27;100.00
25664;BME280;13522;50.018;20.014;2023-11-22T22:26:30;99771.96;;;-0.22;100.00
25664;BME280;13522;50.018;20.014;2023-11-22T22:29:43;99767.75;;;-0.26;100.00
25664;BME280;13522;50.018;20.014;2023-11-22T22:32:54;99771.19;;;-0.26;100.00
25664;BME280;13522;50.018;20.014;2023-11-22T22:36:08;99785.04;;;-0.24;100.00
25664;BME280;13522;50.018;20.014;2023-11-22T22:39:33;99771.96;;;-0.22;100.00
25664;BME280;13522;50.018;20.014;2023-11-22T22:43:14;99769.35;;;-0.22;100.00
25664;BME280;13522;50.018;20.014;2023-11-22T22:46:26;99771.24;;;-0.27;100.00
25664;BME280;13522;50.018;20.014;2023-11-22T22:49:39;99735.92;;;-0.37;100.00
25664;BME280;13522;50.018;20.014;2023-11-22T22:52:51;99739.39;;;-0.37;100.00
25664;BME280;13522;50.018;20.014;2023-11-22T22:56:31;99734.31;;;-0.41;100.00
25664;BME280;13522;50.018;20.014;2023-11-22T22:59:43;99735.03;;;-0.36;100.00
25664;BME280;13522;50.018;20.014;2023-11-22T23:02:56;99734.91;;;-0.33;100.00
25664;BME280;13522;50.018;20.014;2023-11-22T23:06:13;99736.64;;;-0.32;100.00
25664;BME280;13522;50.018;20.014;2023-11-22T23:09:31;99734.83;;;-0.30;100.00
25664;BME280;13522;50.018;20.014;2023-11-22T23:13:12;99701.91;;;-0.34;100.00
25664;BME280;13522;50.018;20.014;2023-11-22T23:16:25;99715.76;;;-0.32;100.00
25664;BME280;13522;50.018;20.014;2023-11-22T23:19:37;99725.13;;;-0.27;100.00
25664;BME280;13522;50.018;20.014;2023-11-22T23:23:17;99716.38;;;-0.26;100.00
25664;BME280;13522;50.018;20.014;2023-11-22T23:26:29;99714.75;;;-0.28;100.00
25664;BME280;13522;50.018;20.014;2023-11-22T23:29:41;99702.53;;;-0.28;100.00
25664;BME280;13522;50.018;20.014;2023-11-22T23:33:22;99707.13;;;-0.34;100.00
25664;BME280;13522;50.018;20.014;2023-11-22T23:36:34;99706.92;;;-0.28;100.00
25664;BME280;13522;50.018;20.014;2023-11-22T23:39:48;99699.89;;;-0.26;100.00
25664;BME280;13522;50.018;20.014;2023-11-22T23:43:14;99697.30;;;-0.28;100.00
25664;BME280;13522;50.018;20.014;2023-11-22T23:47:05;99671.21;;;-0.28;100.00
25664;BME280;13522;50.018;20.014;2023-11-22T23:50:45;99662.55;;;-0.28;100.00
25664;BME280;13522;50.018;20.014;2023-11-22T23:54:53;99649.59;;;-0.31;100.00
25664;BME280;13522;50.018;20.014;2023-11-22T23:58:11;99647.78;;;-0.29;100.00
